createdAt,value
2016-11-01T00:02:24.255Z,1026.25
2016-11-01T00:07:24.203Z,1026.23
2016-11-01T00:12:24.153Z,1026.19
2016-11-01T00:17:24.103Z,1026.09
2016-11-01T00:22:24.051Z,1025.97
2016-11-01T00:27:24.000Z,1026.08
2016-11-01T00:32:23.947Z,1026.04
2016-11-01T00:37:23.899Z,1026.01
2016-11-01T00:42:23.845Z,1025.93
2016-11-01T00:47:23.797Z,1025.94
2016-11-01T00:52:23.746Z,1025.87
2016-11-01T00:57:23.689Z,1025.84
2016-11-01T01:02:23.640Z,1025.79
2016-11-01T01:07:23.589Z,1025.74
2016-11-01T01:12:23.542Z,1025.65
2016-11-01T01:17:23.485Z,1025.53
2016-11-01T01:22:23.433Z,1025.54
2016-11-01T01:27:23.383Z,1025.49
2016-11-01T01:32:23.333Z,1025.41
2016-11-01T01:37:23.280Z,1025.25
2016-11-01T01:42:23.229Z,1025.25
2016-11-01T01:47:23.178Z,1025.24
2016-11-01T01:52:23.124Z,1025.16
2016-11-01T01:57:23.074Z,1025.15
2016-11-01T02:02:23.022Z,1025.07
2016-11-01T02:07:22.972Z,1024.97
2016-11-01T02:12:22.919Z,1024.86
2016-11-01T02:17:22.866Z,1024.78
2016-11-01T02:22:22.814Z,1024.69
2016-11-01T02:27:22.763Z,1024.62
2016-11-01T02:32:22.708Z,1024.5
2016-11-01T02:37:22.655Z,1024.46
2016-11-01T02:42:22.605Z,1024.45
2016-11-01T02:47:22.554Z,1024.36
2016-11-01T02:52:22.497Z,1024.43
2016-11-01T02:57:22.447Z,1024.39
2016-11-01T03:02:22.393Z,1024.38
2016-11-01T03:07:22.339Z,1024.33
2016-11-01T03:12:22.287Z,1024.39
2016-11-01T03:17:22.235Z,1024.3
2016-11-01T03:22:22.181Z,1024.28
2016-11-01T03:27:22.129Z,1024.25
2016-11-01T03:32:22.080Z,1024.2
2016-11-01T03:37:22.025Z,1024.12
2016-11-01T03:42:21.973Z,1024.11
2016-11-01T03:47:21.919Z,1024.08
2016-11-01T03:52:21.867Z,1024.08
2016-11-01T03:57:21.815Z,1024.06
2016-11-01T04:02:21.763Z,1024.02
2016-11-01T04:07:21.711Z,1024.06
2016-11-01T04:12:21.659Z,1024.1
2016-11-01T04:17:21.604Z,1024.1
2016-11-01T04:22:21.552Z,1023.99
2016-11-01T04:27:21.498Z,1023.93
2016-11-01T04:32:21.451Z,1023.82
2016-11-01T04:37:21.392Z,1023.76
2016-11-01T04:42:21.340Z,1023.77
2016-11-01T04:47:21.286Z,1023.68
2016-11-01T04:52:21.232Z,1023.68
2016-11-01T04:57:21.178Z,1023.61
2016-11-01T05:02:21.126Z,1023.63
2016-11-01T05:07:21.072Z,1023.56
2016-11-01T05:12:21.019Z,1023.42
2016-11-01T05:17:20.966Z,1023.46
2016-11-01T05:22:20.911Z,1023.39
2016-11-01T05:27:20.856Z,1023.34
2016-11-01T05:32:20.799Z,1023.28
2016-11-01T05:37:20.743Z,1023.28
2016-11-01T05:42:20.692Z,1023.21
2016-11-01T05:47:20.634Z,1023.15
2016-11-01T05:52:20.577Z,1023.06
2016-11-01T05:57:20.521Z,1022.99
2016-11-01T06:02:20.467Z,1022.91
2016-11-01T06:07:20.412Z,1022.96
2016-11-01T06:12:20.357Z,1022.9
2016-11-01T06:17:20.302Z,1022.86
2016-11-01T06:22:20.248Z,1022.86
2016-11-01T06:27:20.188Z,1022.9
2016-11-01T06:32:20.134Z,1022.88
2016-11-01T06:37:20.076Z,1022.94
2016-11-01T06:42:20.020Z,1022.93
2016-11-01T06:47:19.965Z,1022.96
2016-11-01T06:52:19.906Z,1022.97
2016-11-01T06:57:19.851Z,1022.9
2016-11-01T07:02:19.795Z,1022.86
2016-11-01T07:07:19.743Z,1022.87
2016-11-01T07:12:19.687Z,1022.81
2016-11-01T07:17:19.633Z,1022.82
2016-11-01T07:22:19.581Z,1022.78
2016-11-01T07:27:19.528Z,1022.75
2016-11-01T07:32:19.476Z,1022.82
2016-11-01T07:37:19.422Z,1022.75
2016-11-01T07:42:19.370Z,1022.73
2016-11-01T07:47:19.316Z,1022.73
2016-11-01T07:52:19.263Z,1022.73
2016-11-01T07:57:19.211Z,1022.63
2016-11-01T08:02:19.161Z,1022.59
2016-11-01T08:07:19.107Z,1022.59
2016-11-01T08:12:19.055Z,1022.49
2016-11-01T08:17:19.002Z,1022.34
2016-11-01T08:22:18.949Z,1022.4
2016-11-01T08:27:18.898Z,1022.48
2016-11-01T08:32:18.845Z,1022.46
2016-11-01T08:37:18.794Z,1022.25
2016-11-01T08:42:18.743Z,1022.39
2016-11-01T08:47:18.692Z,1022.38
2016-11-01T08:52:18.636Z,1022.35
2016-11-01T08:57:18.583Z,1022.34
2016-11-01T09:02:18.530Z,1022.39
2016-11-01T09:07:18.478Z,1022.34
2016-11-01T09:12:18.424Z,1022.29
2016-11-01T09:17:18.377Z,1022.36
2016-11-01T09:22:18.323Z,1022.32
2016-11-01T09:27:18.271Z,1022.28
2016-11-01T09:32:18.221Z,1022.26
2016-11-01T09:37:18.169Z,1022.08
2016-11-01T09:42:18.119Z,1022.03
2016-11-01T09:47:18.069Z,1021.88
2016-11-01T09:52:18.016Z,1022.04
2016-11-01T09:57:17.966Z,1021.97
2016-11-01T10:02:17.913Z,1021.9
2016-11-01T10:07:17.863Z,1022.07
2016-11-01T10:12:17.813Z,1022.2
2016-11-01T10:17:17.760Z,1022.18
2016-11-01T10:22:17.710Z,1022.19
2016-11-01T10:27:17.659Z,1022.25
2016-11-01T10:32:17.605Z,1022.25
2016-11-01T10:37:17.555Z,1022.21
2016-11-01T10:42:17.506Z,1022.23
2016-11-01T10:47:17.451Z,1022.15
2016-11-01T10:52:17.402Z,1022.18
2016-11-01T10:57:17.352Z,1022.09
2016-11-01T11:02:17.298Z,1021.99
2016-11-01T11:07:17.247Z,1021.92
2016-11-01T11:12:17.195Z,1021.84
2016-11-01T11:17:17.147Z,1021.89
2016-11-01T11:22:17.093Z,1021.85
2016-11-01T11:27:17.041Z,1021.77
2016-11-01T11:32:16.995Z,1021.74
2016-11-01T11:37:16.939Z,1021.76
2016-11-01T11:42:16.889Z,1021.68
2016-11-01T11:47:16.837Z,1021.6
2016-11-01T11:52:16.787Z,1021.58
2016-11-01T11:57:16.733Z,1021.48
2016-11-01T12:02:16.681Z,1021.41
2016-11-01T12:07:16.629Z,1021.37
2016-11-01T12:12:16.578Z,1021.29
2016-11-01T12:17:16.526Z,1021.18
2016-11-01T12:22:16.477Z,1021.19
2016-11-01T12:27:16.430Z,1021.15
2016-11-01T12:32:16.378Z,1021.14
2016-11-01T12:37:16.326Z,1021.14
2016-11-01T12:42:16.275Z,1021.16
2016-11-01T12:47:16.226Z,1021.18
2016-11-01T12:52:16.175Z,1021.13
2016-11-01T12:57:16.123Z,1021.08
2016-11-01T13:02:16.105Z,1021.05
2016-11-01T13:07:16.023Z,1021.06
2016-11-01T13:12:15.973Z,1021.05
2016-11-01T13:17:15.939Z,1021.06
2016-11-01T13:22:15.874Z,1020.94
2016-11-01T13:27:15.821Z,1020.87
2016-11-01T13:32:15.773Z,1020.88
2016-11-01T13:37:15.721Z,1020.87
2016-11-01T13:42:15.671Z,1020.98
2016-11-01T13:47:15.621Z,1021.1
2016-11-01T13:52:15.572Z,1021.13
2016-11-01T13:57:15.522Z,1021.21
2016-11-01T14:02:15.469Z,1021.27
2016-11-01T14:07:15.419Z,1021.31
2016-11-01T14:12:15.367Z,1021.22
2016-11-01T14:17:15.316Z,1021.28
2016-11-01T14:22:15.265Z,1021.33
2016-11-01T14:27:15.212Z,1021.44
2016-11-01T14:32:15.159Z,1021.39
2016-11-01T14:37:15.108Z,1021.39
2016-11-01T14:42:15.054Z,1021.45
2016-11-01T14:47:15.005Z,1021.4
2016-11-01T14:52:14.947Z,1021.41
2016-11-01T14:57:14.895Z,1021.58
2016-11-01T15:02:14.841Z,1021.54
2016-11-01T15:07:14.792Z,1021.58
2016-11-01T15:12:14.738Z,1021.59
2016-11-01T15:17:14.683Z,1021.56
2016-11-01T15:22:14.633Z,1021.52
2016-11-01T15:27:14.579Z,1021.56
2016-11-01T15:32:14.535Z,1021.59
2016-11-01T15:37:14.476Z,1021.59
2016-11-01T15:42:14.426Z,1021.55
2016-11-01T15:47:14.381Z,1021.48
2016-11-01T15:52:14.327Z,1021.51
2016-11-01T15:57:14.285Z,1021.51
2016-11-01T16:02:14.227Z,1021.54
2016-11-01T16:07:14.177Z,1021.59
2016-11-01T16:12:14.131Z,1021.57
2016-11-01T16:17:14.070Z,1021.62
2016-11-01T16:22:14.021Z,1021.63
2016-11-01T16:27:13.972Z,1021.62
2016-11-01T16:32:13.918Z,1021.63
2016-11-01T16:37:13.867Z,1021.59
2016-11-01T16:42:13.818Z,1021.6
2016-11-01T16:47:13.766Z,1021.66
2016-11-01T16:52:13.716Z,1021.65
2016-11-01T16:57:13.666Z,1021.67
2016-11-01T17:02:13.619Z,1021.59
2016-11-01T17:07:13.565Z,1021.62
2016-11-01T17:12:13.519Z,1021.7
2016-11-01T17:17:13.472Z,1021.72
2016-11-01T17:22:13.423Z,1021.73
2016-11-01T17:27:13.380Z,1021.75
2016-11-01T17:32:13.328Z,1021.69
2016-11-01T17:37:13.282Z,1021.75
2016-11-01T17:42:13.231Z,1021.77
2016-11-01T17:47:13.184Z,1021.74
2016-11-01T17:52:13.135Z,1021.74
2016-11-01T17:57:13.086Z,1021.73
2016-11-01T18:02:13.034Z,1021.77
2016-11-01T18:07:12.985Z,1021.77
2016-11-01T18:12:12.934Z,1021.75
2016-11-01T18:17:12.886Z,1021.76
2016-11-01T18:22:12.836Z,1021.75
2016-11-01T18:27:12.787Z,1021.7
2016-11-01T18:32:12.736Z,1021.7
2016-11-01T18:37:12.687Z,1021.62
2016-11-01T18:42:12.633Z,1021.58
2016-11-01T18:47:12.588Z,1021.59
2016-11-01T18:52:12.538Z,1021.58
2016-11-01T18:57:12.493Z,1021.55
2016-11-01T19:02:12.442Z,1021.58
2016-11-01T19:07:12.396Z,1021.59
2016-11-01T19:12:12.349Z,1021.54
2016-11-01T19:17:12.303Z,1021.55
2016-11-01T19:22:12.256Z,1021.52
2016-11-01T19:27:12.235Z,1021.5
2016-11-01T19:32:12.161Z,1021.53
2016-11-01T19:37:12.115Z,1021.55
2016-11-01T19:42:12.070Z,1021.43
2016-11-01T19:47:12.023Z,1021.44
2016-11-01T19:52:11.981Z,1021.47
2016-11-01T19:57:11.931Z,1021.51
2016-11-01T20:02:11.888Z,1021.49
2016-11-01T20:07:11.840Z,1021.49
2016-11-01T20:12:11.793Z,1021.48
2016-11-01T20:17:11.750Z,1021.5
2016-11-01T20:22:11.706Z,1021.45
2016-11-01T20:27:11.660Z,1021.47
2016-11-01T20:32:11.613Z,1021.43
2016-11-01T20:37:11.568Z,1021.42
2016-11-01T20:42:11.523Z,1021.39
2016-11-01T20:47:11.472Z,1021.39
2016-11-01T20:52:11.427Z,1021.38
2016-11-01T20:57:11.387Z,1021.39
2016-11-01T21:02:11.331Z,1021.37
2016-11-01T21:07:11.287Z,1021.34
2016-11-01T21:12:11.240Z,1021.36
2016-11-01T21:17:11.192Z,1021.36
2016-11-01T21:22:11.144Z,1021.35
2016-11-01T21:27:11.100Z,1021.32
2016-11-01T21:32:11.051Z,1021.29
2016-11-01T21:37:11.002Z,1021.26
2016-11-01T21:42:10.953Z,1021.26
2016-11-01T21:47:10.910Z,1021.25
2016-11-01T21:52:10.861Z,1021.25
2016-11-01T21:57:10.811Z,1021.21
2016-11-01T22:02:10.769Z,1021.2
2016-11-01T22:07:10.720Z,1021.18
2016-11-01T22:12:10.674Z,1021.15
2016-11-01T22:17:10.633Z,1021.1
2016-11-01T22:22:10.579Z,1021.09
2016-11-01T22:27:10.531Z,1021.09
2016-11-01T22:32:10.483Z,1021.13
2016-11-01T22:37:10.434Z,1021.05
2016-11-01T22:42:10.395Z,1020.97
2016-11-01T22:47:10.341Z,1021.01
2016-11-01T22:52:10.295Z,1021.04
2016-11-01T22:57:10.246Z,1020.98
2016-11-01T23:02:10.200Z,1020.78
2016-11-01T23:07:10.152Z,1020.84
2016-11-01T23:12:10.103Z,1020.82
2016-11-01T23:17:10.058Z,1020.78
2016-11-01T23:22:10.010Z,1020.76
2016-11-01T23:27:09.962Z,1020.7
2016-11-01T23:32:09.911Z,1020.68
2016-11-01T23:37:09.860Z,1020.67
2016-11-01T23:42:09.811Z,1020.74
2016-11-01T23:47:09.759Z,1020.73
2016-11-01T23:52:09.712Z,1020.69
2016-11-01T23:57:09.658Z,1020.67
